Time;durP1;ratioP1;P1;durP2;ratioP2;P2;SDS_P1;SDS_P2;PMS_P1;PMS_P2;Temp;Humidity;BMP_temperature;BMP_pressure;BME280_temperature;BME280_humidity;BME280_pressure;Samples;Min_cycle;Max_cycle;Signal;HPM_P1;HPM_P2
2023/12/30 00:00:07;;;;;;;6.60;2.20;;;17.40;65.90;;;;;;4966776;28;20493;-81
2023/12/30 00:02:46;;;;;;;5.47;2.40;;;17.30;65.50;;;;;;4978698;28;20516;-78
2023/12/30 00:05:16;;;;;;;2.70;2.03;;;17.30;65.30;;;;;;4967813;28;20442;-78
2023/12/30 00:07:44;;;;;;;4.00;2.63;;;17.30;66.00;;;;;;4971263;28;20449;-82
2023/12/30 00:21:42;;;;;;;4.37;2.10;;;17.20;65.50;;;;;;4897158;29;20431;-79
2023/12/30 00:24:12;;;;;;;3.23;2.03;;;17.10;65.50;;;;;;4903624;29;20529;-79
2023/12/30 00:26:50;;;;;;;2.63;2.13;;;17.10;65.30;;;;;;4961510;28;20470;-81
2023/12/30 00:33:30;;;;;;;2.40;2.20;;;17.20;65.40;;;;;;4934645;28;20445;-79
2023/12/30 00:40:18;;;;;;;4.10;2.23;;;17.20;65.30;;;;;;4965162;28;20519;-79
2023/12/30 00:42:54;;;;;;;3.07;1.87;;;17.20;65.40;;;;;;4970705;28;20446;-80
2023/12/30 00:45:36;;;;;;;3.13;2.17;;;17.20;64.80;;;;;;4975501;28;20823;-81
2023/12/30 00:48:13;;;;;;;2.47;1.73;;;17.10;65.10;;;;;;4959572;28;20442;-79
2023/12/30 00:50:54;;;;;;;4.63;1.73;;;17.10;65.30;;;;;;4963844;28;20506;-79
2023/12/30 00:53:22;;;;;;;2.97;2.00;;;17.20;65.20;;;;;;4969128;28;20482;-79
2023/12/30 00:55:53;;;;;;;2.70;2.07;;;17.20;65.40;;;;;;4961581;28;20478;-80
2023/12/30 00:58:22;;;;;;;2.07;1.90;;;17.20;65.40;;;;;;4962914;28;20569;-78
2023/12/30 01:00:50;;;;;;;1.90;1.70;;;17.10;65.50;;;;;;4960806;28;20458;-80
2023/12/30 01:03:18;;;;;;;3.70;2.10;;;17.20;65.30;;;;;;4965483;28;20446;-79
2023/12/30 01:05:46;;;;;;;4.17;2.60;;;17.20;65.40;;;;;;4976679;28;20492;-81
2023/12/30 01:08:14;;;;;;;2.60;1.83;;;17.20;65.20;;;;;;4989829;28;20460;-80
2023/12/30 01:10:42;;;;;;;3.43;1.80;;;17.20;65.40;;;;;;4978635;28;20501;-80
2023/12/30 01:13:14;;;;;;;1.90;1.80;;;17.10;65.50;;;;;;4968734;28;20497;-80
2023/12/30 01:15:46;;;;;;;1.83;1.73;;;17.20;65.60;;;;;;4979964;28;20477;-77
2023/12/30 01:18:15;;;;;;;2.00;1.80;;;17.20;65.30;;;;;;4977838;28;20469;-79
2023/12/30 01:20:45;;;;;;;3.10;1.63;;;17.20;65.10;;;;;;4965908;28;20439;-80
2023/12/30 01:23:15;;;;;;;2.73;2.23;;;17.10;65.20;;;;;;4970336;28;20454;-79
2023/12/30 01:25:47;;;;;;;1.77;1.60;;;17.10;65.20;;;;;;4975058;28;20518;-80
2023/12/30 01:28:20;;;;;;;2.30;1.87;;;17.10;65.10;;;;;;4973592;28;20447;-81
2023/12/30 01:30:57;;;;;;;2.67;2.03;;;17.10;65.00;;;;;;4976105;28;20477;-78
2023/12/30 01:33:30;;;;;;;2.23;1.77;;;17.10;64.90;;;;;;4971801;28;20520;-79
2023/12/30 01:35:59;;;;;;;1.93;1.80;;;17.00;65.50;;;;;;4976263;28;20474;-78
2023/12/30 01:38:30;;;;;;;2.83;1.90;;;17.00;64.80;;;;;;4973794;28;20992;-79
2023/12/30 01:40:58;;;;;;;2.60;1.63;;;17.00;65.20;;;;;;4965123;28;20446;-80
2023/12/30 01:43:31;;;;;;;4.20;1.80;;;17.00;64.90;;;;;;4971207;28;20458;-80
2023/12/30 01:46:08;;;;;;;5.57;1.70;;;17.00;64.70;;;;;;4972324;28;20459;-80
2023/12/30 01:48:39;;;;;;;3.17;1.63;;;17.00;65.30;;;;;;4973057;28;20424;-79
2023/12/30 01:51:13;;;;;;;2.60;2.17;;;17.00;65.00;;;;;;4974090;28;20501;-79
2023/12/30 01:53:53;;;;;;;2.07;1.90;;;17.00;64.90;;;;;;4968383;28;20450;-78
2023/12/30 01:56:21;;;;;;;2.50;1.90;;;17.00;64.90;;;;;;4973231;28;20477;-80
2023/12/30 01:58:51;;;;;;;2.73;1.80;;;16.90;64.80;;;;;;4963133;28;20457;-80
2023/12/30 02:01:21;;;;;;;2.27;2.00;;;16.90;64.70;;;;;;4973512;28;20453;-80
2023/12/30 02:04:01;;;;;;;3.00;1.83;;;16.90;65.10;;;;;;4976282;28;20442;-81
2023/12/30 02:06:43;;;;;;;5.17;2.13;;;16.90;64.90;;;;;;4969802;28;20475;-80
2023/12/30 02:09:24;;;;;;;2.87;1.80;;;16.90;65.00;;;;;;4962139;28;20455;-81
2023/12/30 02:11:58;;;;;;;2.83;1.90;;;16.90;64.80;;;;;;4967741;28;20525;-81
2023/12/30 02:14:29;;;;;;;2.80;1.87;;;16.90;64.50;;;;;;4974788;28;20452;-79
2023/12/30 02:16:57;;;;;;;2.83;1.80;;;16.90;65.00;;;;;;4973160;28;21112;-79
2023/12/30 02:22:23;;;;;;;3.70;1.90;;;16.90;64.90;;;;;;4959015;28;20451;-78
2023/12/30 02:24:53;;;;;;;3.27;1.70;;;16.90;64.80;;;;;;4966227;28;20461;-81
2023/12/30 02:27:25;;;;;;;2.80;1.70;;;16.90;65.00;;;;;;4980254;28;20907;-79
2023/12/30 02:33:43;;;;;;;2.87;1.90;;;16.90;64.90;;;;;;4962657;28;20587;-82
2023/12/30 02:40:27;;;;;;;2.97;2.03;;;16.80;64.90;;;;;;4973855;28;20433;-80
2023/12/30 02:42:56;;;;;;;1.80;1.70;;;16.70;64.80;;;;;;4976767;28;20457;-78
2023/12/30 02:45:24;;;;;;;1.57;1.50;;;16.80;65.10;;;;;;4994130;28;20469;-78
2023/12/30 02:47:52;;;;;;;1.70;1.43;;;16.80;64.80;;;;;;4994917;28;20485;-80
2023/12/30 02:50:21;;;;;;;2.97;1.77;;;16.80;64.80;;;;;;4994300;28;20496;-80
2023/12/30 02:52:49;;;;;;;3.50;2.23;;;16.80;64.60;;;;;;4993870;28;20484;-80
2023/12/30 02:55:17;;;;;;;2.37;2.00;;;16.80;64.30;;;;;;4993836;28;20477;-79
2023/12/30 02:57:47;;;;;;;2.07;1.73;;;16.70;64.60;;;;;;4977679;28;20532;-78
2023/12/30 03:00:18;;;;;;;1.70;1.60;;;16.70;64.40;;;;;;4978871;28;20446;-80
2023/12/30 03:02:48;;;;;;;2.83;2.23;;;16.70;64.70;;;;;;4987384;28;20442;-79
2023/12/30 03:05:16;;;;;;;4.40;2.47;;;16.70;64.10;;;;;;4997449;28;20438;-79
2023/12/30 03:07:47;;;;;;;1.73;1.63;;;16.70;64.50;;;;;;4996924;28;20441;-80
2023/12/30 03:10:15;;;;;;;2.03;1.63;;;16.70;64.50;;;;;;4995129;28;20556;-79
2023/12/30 03:12:44;;;;;;;4.73;1.60;;;16.70;64.50;;;;;;4975508;28;20537;-80
2023/12/30 03:15:14;;;;;;;3.03;2.23;;;16.70;64.40;;;;;;4988532;28;20512;-79
2023/12/30 03:17:43;;;;;;;3.37;2.10;;;16.70;64.00;;;;;;4995773;28;20445;-81
2023/12/30 03:20:11;;;;;;;4.90;1.90;;;16.70;64.50;;;;;;4982106;28;20446;-79
2023/12/30 03:22:39;;;;;;;2.13;1.90;;;16.70;64.00;;;;;;4980668;28;20489;-79
2023/12/30 03:25:09;;;;;;;4.83;2.33;;;16.70;64.10;;;;;;4995627;28;20457;-80
2023/12/30 03:27:37;;;;;;;5.97;2.57;;;16.70;64.80;;;;;;5000988;28;20481;-79
2023/12/30 03:30:07;;;;;;;3.87;2.70;;;16.70;64.50;;;;;;5003305;28;20444;-81
2023/12/30 03:32:37;;;;;;;2.87;2.57;;;16.70;64.60;;;;;;5001689;28;20468;-81
2023/12/30 03:35:06;;;;;;;3.03;2.47;;;16.70;64.10;;;;;;5003993;28;20545;-78
2023/12/30 03:37:35;;;;;;;4.43;2.80;;;16.70;64.40;;;;;;5005157;28;20442;-79
2023/12/30 03:40:03;;;;;;;4.27;3.00;;;16.70;64.60;;;;;;5000510;28;20481;-78
2023/12/30 03:42:32;;;;;;;10.67;3.50;;;16.80;64.90;;;;;;4995730;28;20550;-79
2023/12/30 03:45:01;;;;;;;3.17;2.70;;;16.80;64.90;;;;;;4980427;28;20537;-79
2023/12/30 03:47:30;;;;;;;5.13;3.40;;;16.80;64.80;;;;;;4983378;28;20478;-76
2023/12/30 03:49:59;;;;;;;5.87;3.63;;;16.80;65.00;;;;;;4997591;28;20437;-78
2023/12/30 03:52:28;;;;;;;4.10;3.23;;;16.80;65.00;;;;;;5001885;28;20508;-78
2023/12/30 03:54:57;;;;;;;5.17;3.80;;;16.80;64.60;;;;;;5006789;28;20512;-81
2023/12/30 03:57:26;;;;;;;4.17;3.33;;;16.80;65.10;;;;;;4990336;28;20473;-78
2023/12/30 03:59:54;;;;;;;6.70;3.77;;;16.80;64.90;;;;;;4984994;28;20442;-79
2023/12/30 04:02:21;;;;;;;4.00;3.50;;;16.80;65.00;;;;;;4980774;28;20450;-81
2023/12/30 04:04:50;;;;;;;4.27;2.93;;;16.80;64.90;;;;;;4971504;28;20547;-79
2023/12/30 04:07:19;;;;;;;7.27;3.40;;;16.80;65.30;;;;;;4982061;28;20458;-81
2023/12/30 04:09:47;;;;;;;7.40;3.63;;;16.80;65.10;;;;;;4981394;28;20437;-79
2023/12/30 04:12:15;;;;;;;7.40;3.13;;;16.80;65.00;;;;;;4969429;28;20485;-78
2023/12/30 04:14:43;;;;;;;5.07;3.10;;;16.80;65.20;;;;;;4978848;28;20445;-79
2023/12/30 04:17:11;;;;;;;4.20;3.73;;;16.80;65.50;;;;;;4972109;28;20553;-78
2023/12/30 04:19:39;;;;;;;3.67;3.30;;;16.80;65.20;;;;;;4968200;28;20435;-80
2023/12/30 04:22:07;;;;;;;4.10;3.17;;;16.80;65.20;;;;;;4965094;28;20435;-79
2023/12/30 04:24:37;;;;;;;4.93;3.43;;;16.80;65.10;;;;;;4971632;28;20470;-80
2023/12/30 04:27:05;;;;;;;4.20;3.40;;;16.80;65.30;;;;;;4966688;28;20506;-78
2023/12/30 04:29:33;;;;;;;4.30;3.03;;;16.80;65.40;;;;;;4981111;28;20439;-79
2023/12/30 04:32:02;;;;;;;4.73;3.17;;;16.80;65.40;;;;;;4975528;28;20509;-79
2023/12/30 04:34:30;;;;;;;6.23;3.30;;;16.80;65.30;;;;;;4989817;28;20489;-79
2023/12/30 04:36:58;;;;;;;4.60;3.10;;;16.80;65.50;;;;;;4993820;28;20477;-80
2023/12/30 04:39:26;;;;;;;4.57;3.03;;;16.80;65.20;;;;;;4987263;28;20443;-78
2023/12/30 04:41:56;;;;;;;3.90;3.10;;;16.80;65.30;;;;;;4977703;28;20450;-79
2023/12/30 04:44:25;;;;;;;5.00;3.10;;;16.80;65.50;;;;;;4991721;28;20455;-80
2023/12/30 04:46:53;;;;;;;4.00;3.30;;;16.80;65.60;;;;;;4976030;28;20489;-78
2023/12/30 04:49:22;;;;;;;4.83;3.03;;;16.80;65.50;;;;;;4962499;28;20454;-79
2023/12/30 04:51:50;;;;;;;6.60;3.67;;;16.80;65.20;;;;;;4966678;28;20534;-78
2023/12/30 04:54:18;;;;;;;3.40;2.63;;;16.80;65.60;;;;;;4963927;28;20508;-77
2023/12/30 04:56:46;;;;;;;6.37;3.30;;;16.80;66.00;;;;;;4968789;28;20531;-75
2023/12/30 04:59:16;;;;;;;4.17;2.87;;;16.80;65.60;;;;;;4976124;28;20466;-77
2023/12/30 05:01:44;;;;;;;3.77;2.50;;;16.80;65.50;;;;;;4977350;28;20416;-78
2023/12/30 05:04:12;;;;;;;7.73;3.23;;;16.80;65.50;;;;;;4970082;28;20445;-77
2023/12/30 05:06:40;;;;;;;3.60;2.60;;;16.80;65.20;;;;;;4978846;28;20478;-79
2023/12/30 05:09:14;;;;;;;3.10;2.80;;;16.70;65.90;;;;;;4978889;28;20454;-82
2023/12/30 05:11:45;;;;;;;6.07;3.03;;;16.70;65.70;;;;;;4966602;28;20510;-77
2023/12/30 05:14:14;;;;;;;3.43;2.53;;;16.70;65.30;;;;;;4959395;28;20447;-77
2023/12/30 05:16:45;;;;;;;3.57;2.43;;;16.70;65.30;;;;;;4967820;28;20489;-79
2023/12/30 05:19:14;;;;;;;5.30;2.70;;;16.70;65.70;;;;;;4968887;28;20441;-79
2023/12/30 05:21:43;;;;;;;4.83;2.70;;;16.60;65.10;;;;;;4993084;28;20443;-78
2023/12/30 05:24:11;;;;;;;3.53;2.30;;;16.70;65.10;;;;;;4964385;28;20521;-77
2023/12/30 05:26:40;;;;;;;4.03;2.40;;;16.70;65.30;;;;;;4963421;28;20538;-78
2023/12/30 05:29:13;;;;;;;4.77;2.73;;;16.70;64.90;;;;;;4976749;28;20495;-79
2023/12/30 05:31:42;;;;;;;4.63;2.67;;;16.60;65.30;;;;;;4986332;28;20478;-83
2023/12/30 05:34:12;;;;;;;3.20;2.13;;;16.60;65.00;;;;;;4981994;28;20454;-78
2023/12/30 05:36:40;;;;;;;6.70;2.70;;;16.60;65.20;;;;;;4974557;28;20474;-84
2023/12/30 05:39:12;;;;;;;4.50;2.53;;;16.60;64.90;;;;;;4982912;28;20457;-81
2023/12/30 05:41:41;;;;;;;2.80;2.20;;;16.60;65.40;;;;;;4981422;28;20465;-80
2023/12/30 05:44:09;;;;;;;5.40;2.50;;;16.50;64.70;;;;;;4970259;28;20457;-80
2023/12/30 05:46:38;;;;;;;4.60;2.30;;;16.50;65.20;;;;;;4985557;28;20530;-79
2023/12/30 05:49:06;;;;;;;6.00;2.63;;;16.50;64.70;;;;;;4975490;28;20519;-78
2023/12/30 05:51:41;;;;;;;4.53;2.53;;;16.50;64.70;;;;;;4974977;28;20503;-82
2023/12/30 05:54:10;;;;;;;4.20;2.17;;;16.50;64.70;;;;;;4983579;28;20453;-78
2023/12/30 05:56:38;;;;;;;3.87;2.20;;;16.50;64.90;;;;;;4980850;28;20458;-78
2023/12/30 05:59:06;;;;;;;3.63;2.77;;;16.50;64.80;;;;;;4979649;28;20453;-79
2023/12/30 06:01:33;;;;;;;2.47;1.90;;;16.50;64.40;;;;;;4977403;28;20485;-80
2023/12/30 06:04:02;;;;;;;6.00;2.03;;;16.40;64.80;;;;;;4976920;28;20445;-80
2023/12/30 06:06:30;;;;;;;4.60;2.30;;;16.50;64.70;;;;;;4984401;28;20519;-78
2023/12/30 06:09:01;;;;;;;3.20;2.20;;;16.50;64.80;;;;;;4983970;28;20502;-79
2023/12/30 06:11:29;;;;;;;8.80;2.20;;;16.50;64.70;;;;;;4976489;28;20443;-79
2023/12/30 06:13:58;;;;;;;2.53;2.20;;;16.50;64.30;;;;;;4975075;28;20455;-79
2023/12/30 06:16:26;;;;;;;3.30;2.30;;;16.40;64.50;;;;;;4971932;28;20490;-83
2023/12/30 06:18:55;;;;;;;2.80;2.20;;;16.40;64.60;;;;;;4965667;28;20451;-79
2023/12/30 06:21:23;;;;;;;7.30;2.50;;;16.40;64.50;;;;;;4978131;28;20439;-80
2023/12/30 06:23:51;;;;;;;3.40;1.97;;;16.40;64.50;;;;;;4974718;28;20449;-80
2023/12/30 06:26:20;;;;;;;2.60;1.70;;;16.40;64.10;;;;;;4980108;28;20455;-80
2023/12/30 06:28:49;;;;;;;3.53;1.93;;;16.40;64.20;;;;;;4965569;28;20464;-79
2023/12/30 06:31:17;;;;;;;4.70;2.10;;;16.40;64.40;;;;;;4971250;28;20447;-80
2023/12/30 06:33:46;;;;;;;2.70;1.73;;;16.40;64.10;;;;;;4969071;28;21000;-80
2023/12/30 06:36:20;;;;;;;4.27;1.87;;;16.40;64.30;;;;;;4972501;28;20554;-83
2023/12/30 06:38:48;;;;;;;3.53;1.50;;;16.40;63.90;;;;;;4965904;28;20435;-80
2023/12/30 06:41:19;;;;;;;3.57;2.17;;;16.40;64.30;;;;;;4980356;28;20517;-80
2023/12/30 06:43:49;;;;;;;4.50;2.00;;;16.40;64.30;;;;;;4976249;28;20465;-79
2023/12/30 06:46:19;;;;;;;2.13;1.60;;;16.40;64.10;;;;;;4976280;28;20493;-80
2023/12/30 06:48:48;;;;;;;3.27;1.53;;;16.40;64.30;;;;;;4977253;28;20541;-80
2023/12/30 06:51:16;;;;;;;2.63;1.93;;;16.40;64.20;;;;;;5019557;23;20493;-78
2023/12/30 06:53:45;;;;;;;4.20;1.83;;;16.30;63.80;;;;;;4979257;28;20477;-78
2023/12/30 06:56:13;;;;;;;4.50;1.80;;;16.30;63.90;;;;;;4973419;28;20449;-79
2023/12/30 06:58:45;;;;;;;4.67;2.10;;;16.30;64.90;;;;;;4988992;28;20445;-78
2023/12/30 07:01:15;;;;;;;3.90;2.17;;;16.30;64.20;;;;;;4977598;28;20464;-76
2023/12/30 07:03:43;;;;;;;2.23;1.60;;;16.30;63.90;;;;;;4977861;28;20533;-78
2023/12/30 07:06:12;;;;;;;4.50;1.80;;;16.30;64.20;;;;;;4972919;28;20810;-77
2023/12/30 07:08:40;;;;;;;2.83;1.73;;;16.30;64.30;;;;;;4977872;28;20450;-76
2023/12/30 07:11:08;;;;;;;3.20;1.50;;;16.30;63.70;;;;;;4982969;28;20480;-78
2023/12/30 07:13:36;;;;;;;8.93;2.50;;;16.30;64.30;;;;;;4984425;28;20470;-77
2023/12/30 07:16:05;;;;;;;5.37;2.00;;;16.30;64.00;;;;;;4990113;28;20480;-78
2023/12/30 07:18:34;;;;;;;5.03;2.07;;;16.30;64.10;;;;;;4987017;28;20489;-76
2023/12/30 07:21:02;;;;;;;5.20;1.90;;;16.30;64.10;;;;;;4981897;28;20540;-78
2023/12/30 07:23:30;;;;;;;2.33;1.77;;;16.30;63.90;;;;;;4971986;28;20435;-78
2023/12/30 07:25:59;;;;;;;4.73;1.67;;;16.30;64.00;;;;;;4987787;28;20448;-78
2023/12/30 07:28:27;;;;;;;3.57;1.63;;;16.30;64.20;;;;;;4983515;28;20453;-76
2023/12/30 07:30:55;;;;;;;3.97;1.70;;;16.30;64.10;;;;;;4973517;28;20485;-78
2023/12/30 07:33:23;;;;;;;4.13;2.00;;;16.30;64.20;;;;;;4979231;28;20485;-78
2023/12/30 07:35:53;;;;;;;2.30;1.30;;;16.40;64.20;;;;;;4985921;28;20458;-77
2023/12/30 07:38:21;;;;;;;2.30;1.70;;;16.40;64.10;;;;;;4990773;28;20453;-78
2023/12/30 07:40:49;;;;;;;3.33;1.97;;;16.40;64.10;;;;;;4974256;28;20541;-79
2023/12/30 07:43:17;;;;;;;2.80;1.73;;;16.30;63.90;;;;;;4978685;28;20493;-77
2023/12/30 07:45:45;;;;;;;2.60;1.50;;;16.40;64.10;;;;;;4978331;28;20445;-77
2023/12/30 07:48:13;;;;;;;2.30;1.37;;;16.40;64.40;;;;;;4972009;28;20484;-78
2023/12/30 07:50:41;;;;;;;5.70;1.73;;;16.40;64.40;;;;;;4979779;28;20577;-79
2023/12/30 07:53:11;;;;;;;4.03;1.73;;;16.40;64.20;;;;;;4982396;28;20525;-78
2023/12/30 07:55:39;;;;;;;3.83;1.70;;;16.40;64.20;;;;;;4976255;28;20450;-78
2023/12/30 07:58:07;;;;;;;2.00;1.70;;;16.40;64.50;;;;;;4977842;28;20438;-78
2023/12/30 08:00:36;;;;;;;6.43;1.90;;;16.40;64.40;;;;;;4981914;28;20969;-78
2023/12/30 08:03:04;;;;;;;3.27;1.37;;;16.40;64.30;;;;;;4986983;28;20832;-78
2023/12/30 08:05:33;;;;;;;1.90;1.57;;;16.50;64.40;;;;;;4992606;28;20455;-78
2023/12/30 08:08:02;;;;;;;5.03;1.63;;;16.40;63.90;;;;;;4975771;28;20508;-79
2023/12/30 08:10:33;;;;;;;3.67;1.87;;;16.40;64.50;;;;;;4988910;28;20450;-79
2023/12/30 08:13:01;;;;;;;1.97;1.73;;;16.40;64.20;;;;;;4982819;28;20501;-77
2023/12/30 08:15:29;;;;;;;3.07;1.40;;;16.40;64.50;;;;;;4979728;28;20434;-78
2023/12/30 08:17:58;;;;;;;1.73;1.23;;;16.40;64.20;;;;;;4985875;28;20496;-77
2023/12/30 08:20:25;;;;;;;5.33;2.07;;;16.40;64.70;;;;;;4979650;28;20484;-79
2023/12/30 08:22:54;;;;;;;2.60;1.57;;;16.40;64.80;;;;;;4994073;28;20449;-79
2023/12/30 08:25:22;;;;;;;1.83;1.30;;;16.50;64.70;;;;;;4989797;28;20446;-77
2023/12/30 08:27:52;;;;;;;1.93;1.73;;;16.50;64.70;;;;;;4974485;28;20456;-78
2023/12/30 08:30:20;;;;;;;4.33;1.43;;;16.50;64.70;;;;;;4978925;28;20472;-78
2023/12/30 08:32:48;;;;;;;3.47;1.70;;;16.50;64.70;;;;;;4986133;28;20445;-78
2023/12/30 08:35:16;;;;;;;3.67;1.80;;;16.50;64.60;;;;;;4986306;28;20484;-79
2023/12/30 08:37:45;;;;;;;4.93;1.57;;;16.60;64.70;;;;;;4983300;28;20456;-81
2023/12/30 08:40:14;;;;;;;2.57;1.53;;;16.60;64.80;;;;;;4992590;28;20541;-79
2023/12/30 08:42:44;;;;;;;3.57;1.50;;;16.60;64.80;;;;;;4988695;28;20457;-77
2023/12/30 08:45:18;;;;;;;2.57;1.80;;;16.60;64.80;;;;;;4995118;28;20441;-77
2023/12/30 08:47:46;;;;;;;2.03;1.50;;;16.60;64.70;;;;;;4995514;28;20499;-77
2023/12/30 08:50:15;;;;;;;2.60;1.30;;;16.60;64.60;;;;;;4994855;28;20469;-77
2023/12/30 08:52:43;;;;;;;1.67;1.40;;;16.60;64.90;;;;;;4995549;28;20449;-78
2023/12/30 08:55:11;;;;;;;3.63;1.60;;;16.60;64.90;;;;;;4996237;28;20560;-80
2023/12/30 08:57:39;;;;;;;3.57;1.40;;;16.70;64.80;;;;;;4995816;28;20465;-78
2023/12/30 09:00:09;;;;;;;2.63;1.30;;;16.70;65.00;;;;;;4995927;28;20520;-77
2023/12/30 09:02:46;;;;;;;4.70;1.77;;;16.70;65.00;;;;;;4993930;28;20502;-79
2023/12/30 09:05:17;;;;;;;3.00;1.53;;;16.70;64.80;;;;;;5006398;28;20444;-77
2023/12/30 09:07:45;;;;;;;3.00;1.47;;;16.60;65.10;;;;;;5010460;28;20475;-79
2023/12/30 09:10:14;;;;;;;3.33;2.10;;;16.70;65.00;;;;;;5015707;28;20468;-78
2023/12/30 09:12:41;;;;;;;2.90;1.33;;;16.70;65.10;;;;;;5016670;28;20468;-79
2023/12/30 09:15:10;;;;;;;1.60;1.50;;;16.70;65.80;;;;;;5016498;28;20544;-77
2023/12/30 09:17:39;;;;;;;5.20;1.93;;;16.70;65.20;;;;;;5008618;28;20523;-78
2023/12/30 09:20:08;;;;;;;2.13;1.30;;;16.70;65.10;;;;;;5014411;28;20460;-77
2023/12/30 09:22:36;;;;;;;4.13;1.67;;;16.70;65.20;;;;;;4976027;28;20545;-77
2023/12/30 09:25:04;;;;;;;3.90;1.30;;;16.80;65.20;;;;;;4976195;28;20438;-78
2023/12/30 09:27:33;;;;;;;3.00;1.40;;;16.80;65.70;;;;;;4977570;28;20445;-77
2023/12/30 09:30:01;;;;;;;6.77;1.90;;;16.80;65.30;;;;;;4976704;28;20553;-78
2023/12/30 09:32:28;;;;;;;3.77;1.40;;;16.80;65.30;;;;;;4976521;28;20438;-79
2023/12/30 09:34:58;;;;;;;3.47;1.80;;;16.80;65.30;;;;;;4975904;28;20470;-78
2023/12/30 09:37:27;;;;;;;6.57;1.90;;;16.80;65.30;;;;;;4986122;28;20488;-78
2023/12/30 09:39:54;;;;;;;2.97;1.43;;;16.80;65.30;;;;;;4996104;28;20457;-78
2023/12/30 09:42:23;;;;;;;4.10;1.50;;;16.90;65.30;;;;;;5001988;28;20445;-79
2023/12/30 09:44:52;;;;;;;4.60;1.73;;;16.90;65.10;;;;;;4996917;28;20480;-78
2023/12/30 09:47:20;;;;;;;5.07;1.80;;;16.90;65.00;;;;;;4996464;28;20541;-79
2023/12/30 09:49:48;;;;;;;6.23;1.93;;;17.00;65.30;;;;;;4998808;28;20477;-80
2023/12/30 09:52:18;;;;;;;1.87;1.30;;;17.00;65.40;;;;;;5012050;28;20484;-79
2023/12/30 09:54:46;;;;;;;5.23;1.80;;;17.10;65.20;;;;;;5019917;28;20461;-80
2023/12/30 09:57:16;;;;;;;2.77;1.33;;;17.10;65.10;;;;;;5005186;28;20956;-79
2023/12/30 09:59:46;;;;;;;3.23;1.77;;;17.20;65.30;;;;;;4999249;28;20481;-79
2023/12/30 10:02:14;;;;;;;2.70;1.40;;;17.20;65.20;;;;;;4996622;28;20456;-79
2023/12/30 10:04:43;;;;;;;4.03;1.60;;;17.30;65.30;;;;;;4991710;28;20533;-80
2023/12/30 10:07:11;;;;;;;2.47;1.60;;;17.40;65.40;;;;;;4992495;28;20468;-77
2023/12/30 10:09:41;;;;;;;2.10;1.60;;;17.40;65.20;;;;;;4993852;28;20473;-79
2023/12/30 10:12:09;;;;;;;2.60;1.30;;;17.50;65.00;;;;;;4995611;28;20517;-79
2023/12/30 10:14:37;;;;;;;3.37;1.30;;;17.50;65.20;;;;;;4997384;28;20473;-78
2023/12/30 10:17:05;;;;;;;1.90;1.33;;;17.60;65.30;;;;;;4996301;28;20465;-77
2023/12/30 10:19:32;;;;;;;3.03;1.60;;;17.70;65.20;;;;;;4996713;28;20465;-77
2023/12/30 10:22:01;;;;;;;6.00;1.90;;;17.70;65.00;;;;;;4989770;28;20524;-78
2023/12/30 10:24:28;;;;;;;3.97;1.60;;;17.80;65.10;;;;;;5012902;28;20462;-78
2023/12/30 10:27:03;;;;;;;2.27;1.40;;;17.90;65.20;;;;;;4997413;28;20508;-79
2023/12/30 10:29:31;;;;;;;2.07;1.17;;;18.00;65.20;;;;;;4994615;28;20445;-78
2023/12/30 10:32:13;;;;;;;3.50;1.63;;;18.10;65.30;;;;;;4995147;28;20536;-77
2023/12/30 10:34:42;;;;;;;2.10;1.57;;;18.20;65.30;;;;;;4995742;28;20570;-79
2023/12/30 10:37:10;;;;;;;7.03;2.10;;;18.30;65.50;;;;;;4995413;28;20481;-79
2023/12/30 10:39:38;;;;;;;3.83;1.40;;;18.40;65.60;;;;;;4996793;28;20473;-78
2023/12/30 10:42:08;;;;;;;4.10;2.30;;;18.50;65.70;;;;;;4991691;28;20537;-78
2023/12/30 10:44:36;;;;;;;4.93;1.57;;;18.60;65.80;;;;;;4991346;28;20948;-80
2023/12/30 10:47:04;;;;;;;3.57;1.67;;;18.70;66.10;;;;;;4994999;28;20479;-79
2023/12/30 10:49:32;;;;;;;3.87;1.57;;;18.80;66.10;;;;;;4995621;28;20503;-79
2023/12/30 10:52:00;;;;;;;5.30;1.60;;;18.90;66.10;;;;;;4995124;28;20464;-79
2023/12/30 10:54:32;;;;;;;1.60;1.40;;;19.00;66.30;;;;;;4995483;28;20477;-79
2023/12/30 10:57:03;;;;;;;1.97;1.50;;;19.10;66.40;;;;;;4986855;28;20748;-78
2023/12/30 10:59:32;;;;;;;5.73;1.53;;;19.20;66.50;;;;;;5003436;28;20426;-78
2023/12/30 11:02:00;;;;;;;4.37;1.87;;;19.30;66.50;;;;;;4995662;28;20541;-78
2023/12/30 11:04:28;;;;;;;4.30;1.77;;;19.50;66.60;;;;;;5006941;28;20513;-78
2023/12/30 11:06:57;;;;;;;4.77;1.70;;;19.60;66.60;;;;;;4993994;28;20474;-78
2023/12/30 11:09:27;;;;;;;3.47;1.67;;;19.70;66.70;;;;;;5004239;28;20442;-78
2023/12/30 11:11:56;;;;;;;5.03;1.57;;;19.80;66.70;;;;;;4994035;28;20419;-79
2023/12/30 11:14:25;;;;;;;3.27;1.53;;;19.90;66.80;;;;;;4995649;28;20473;-79
2023/12/30 11:16:55;;;;;;;3.40;1.60;;;20.10;66.80;;;;;;4997198;28;20441;-78
2023/12/30 11:19:27;;;;;;;5.80;1.50;;;20.20;66.80;;;;;;4994948;28;20468;-78
2023/12/30 11:21:56;;;;;;;2.60;1.50;;;20.30;66.80;;;;;;4994541;28;20437;-78
2023/12/30 11:24:24;;;;;;;3.43;1.20;;;20.50;66.80;;;;;;4978872;28;20506;-78
2023/12/30 11:26:53;;;;;;;3.43;1.47;;;20.60;66.80;;;;;;4980020;28;20435;-78
2023/12/30 11:29:24;;;;;;;3.70;1.70;;;20.70;66.70;;;;;;5013097;28;20464;-76
2023/12/30 11:31:55;;;;;;;3.13;1.33;;;20.90;66.50;;;;;;4999217;28;20481;-77
2023/12/30 11:34:24;;;;;;;5.20;2.20;;;21.00;66.40;;;;;;4976294;28;20442;-77
2023/12/30 11:36:53;;;;;;;1.87;1.43;;;21.10;66.10;;;;;;4992387;28;20437;-78
2023/12/30 11:39:24;;;;;;;2.70;1.50;;;21.10;65.80;;;;;;4992924;28;20444;-78
2023/12/30 11:41:53;;;;;;;2.90;1.53;;;21.10;65.70;;;;;;4996371;28;20482;-77
2023/12/30 11:44:22;;;;;;;4.33;1.63;;;21.30;65.80;;;;;;4996049;28;20536;-78
2023/12/30 11:46:50;;;;;;;3.57;1.33;;;21.30;65.50;;;;;;4996396;28;20419;-78
2023/12/30 11:49:22;;;;;;;4.80;1.90;;;21.40;65.60;;;;;;4995454;28;20430;-77
2023/12/30 11:51:51;;;;;;;4.60;1.50;;;21.50;65.10;;;;;;4998547;28;20419;-78
2023/12/30 11:54:19;;;;;;;4.73;1.80;;;21.60;65.00;;;;;;4998515;28;20511;-80
2023/12/30 11:56:47;;;;;;;5.70;1.60;;;21.60;64.80;;;;;;4999434;28;20443;-79
2023/12/30 11:59:15;;;;;;;4.30;2.00;;;21.70;64.60;;;;;;4997712;28;20518;-78
2023/12/30 12:01:45;;;;;;;2.20;2.00;;;21.80;64.10;;;;;;4992215;28;20450;-80
2023/12/30 12:04:15;;;;;;;4.80;1.80;;;21.90;64.10;;;;;;4978449;28;20458;-77
2023/12/30 12:06:45;;;;;;;4.70;2.03;;;21.90;63.80;;;;;;4979808;28;21094;-78
2023/12/30 12:09:13;;;;;;;2.73;1.60;;;22.10;63.90;;;;;;5002651;28;20477;-79
2023/12/30 12:11:41;;;;;;;2.70;1.90;;;22.20;63.80;;;;;;4994318;28;20456;-79
2023/12/30 12:14:10;;;;;;;8.60;2.23;;;22.30;63.60;;;;;;4995907;28;20428;-79
2023/12/30 12:16:38;;;;;;;2.43;1.70;;;22.30;63.50;;;;;;5010099;28;20486;-80
2023/12/30 12:19:06;;;;;;;3.93;1.80;;;22.30;63.20;;;;;;5014855;28;20416;-79
2023/12/30 12:21:36;;;;;;;4.03;2.20;;;22.40;63.10;;;;;;5004344;28;20469;-81
2023/12/30 12:24:06;;;;;;;4.77;2.17;;;22.40;63.00;;;;;;4997856;28;20471;-76
2023/12/30 12:26:34;;;;;;;2.70;1.87;;;22.50;63.00;;;;;;4999706;28;20948;-79
2023/12/30 12:29:02;;;;;;;2.87;2.03;;;22.40;62.80;;;;;;4998921;28;20526;-79
2023/12/30 12:31:30;;;;;;;2.40;1.80;;;22.40;62.70;;;;;;4997940;28;20476;-79
2023/12/30 12:34:00;;;;;;;3.77;2.40;;;22.50;62.90;;;;;;5000072;28;20459;-80
2023/12/30 12:36:29;;;;;;;6.87;2.03;;;22.50;63.00;;;;;;4997341;28;20469;-76
2023/12/30 12:38:57;;;;;;;5.47;2.20;;;22.50;62.80;;;;;;4996762;28;20457;-77
2023/12/30 12:41:26;;;;;;;4.13;2.17;;;22.60;62.70;;;;;;4997932;28;20514;-78
2023/12/30 12:43:54;;;;;;;4.00;2.43;;;22.70;62.60;;;;;;4997464;28;20920;-80
2023/12/30 12:46:23;;;;;;;5.20;1.90;;;22.80;62.60;;;;;;4997303;28;20476;-79
2023/12/30 12:48:51;;;;;;;5.30;1.97;;;22.80;62.40;;;;;;4997532;28;20486;-79
2023/12/30 12:51:19;;;;;;;4.03;2.13;;;22.90;62.30;;;;;;4997289;28;20479;-78
2023/12/30 12:53:47;;;;;;;3.23;1.70;;;22.90;62.00;;;;;;4998251;28;20991;-78
2023/12/30 12:56:15;;;;;;;2.97;1.90;;;23.00;62.00;;;;;;4988528;28;20472;-78
2023/12/30 12:58:45;;;;;;;8.20;2.77;;;23.10;62.80;;;;;;4990195;28;20523;-79
2023/12/30 13:01:13;;;;;;;4.47;2.40;;;23.20;61.90;;;;;;5004008;28;20598;-77
2023/12/30 13:03:41;;;;;;;4.80;2.40;;;23.30;61.50;;;;;;5016109;28;20423;-79
2023/12/30 13:06:13;;;;;;;4.67;2.57;;;23.40;61.40;;;;;;5017014;28;20445;-79
2023/12/30 13:08:41;;;;;;;4.60;2.20;;;23.40;60.90;;;;;;5012923;28;20535;-77
2023/12/30 13:11:09;;;;;;;3.67;2.13;;;23.40;60.70;;;;;;5011589;28;20470;-75
2023/12/30 13:13:38;;;;;;;5.60;2.30;;;23.40;60.70;;;;;;5015884;28;20439;-77
2023/12/30 13:16:08;;;;;;;4.60;2.50;;;23.30;60.50;;;;;;5005857;28;20826;-78
2023/12/30 13:18:36;;;;;;;5.20;2.57;;;23.30;60.60;;;;;;4997507;28;20453;-75
2023/12/30 13:21:06;;;;;;;3.40;2.40;;;23.20;60.50;;;;;;4997430;28;20489;-75
2023/12/30 13:23:34;;;;;;;4.27;2.53;;;23.10;60.40;;;;;;4995365;28;20508;-74
2023/12/30 13:26:03;;;;;;;4.00;2.57;;;23.00;60.40;;;;;;4977866;28;20416;-74
2023/12/30 13:28:32;;;;;;;3.90;2.47;;;22.90;60.50;;;;;;4976829;28;20413;-76